createdAt,value
2022-10-25T00:01:23.284Z,14.60
2022-10-25T00:03:50.283Z,12.30
2022-10-25T00:06:17.760Z,16.42
2022-10-25T00:08:44.723Z,10.90
2022-10-25T00:11:20.866Z,11.65
2022-10-25T00:13:52.648Z,12.23
2022-10-25T00:16:26.792Z,16.17
2022-10-25T00:18:53.936Z,13.20
2022-10-25T00:21:21.707Z,14.82
2022-10-25T00:23:48.990Z,11.70
2022-10-25T00:26:15.969Z,14.95
2022-10-25T00:28:43.407Z,16.30
2022-10-25T00:31:13.873Z,12.15
2022-10-25T00:33:41.837Z,15.68
2022-10-25T00:36:27.241Z,12.70
2022-10-25T00:38:56.830Z,12.63
2022-10-25T00:41:31.066Z,13.48
2022-10-25T00:44:35.616Z,13.98
2022-10-25T00:47:19.557Z,18.10
2022-10-25T00:50:05.727Z,14.93
2022-10-25T00:52:36.995Z,18.50
2022-10-25T00:55:06.759Z,15.35
2022-10-25T00:57:40.953Z,12.98
2022-10-25T01:00:09.010Z,13.20
2022-10-25T01:02:35.933Z,14.90
2022-10-25T01:05:03.684Z,13.07
2022-10-25T01:07:30.765Z,16.15
2022-10-25T01:09:58.461Z,13.27
2022-10-25T01:12:25.378Z,13.13
2022-10-25T01:14:53.927Z,12.15
2022-10-25T01:17:31.531Z,14.63
2022-10-25T01:20:28.588Z,13.90
2022-10-25T01:23:26.637Z,13.05
2022-10-25T01:26:41.440Z,16.35
2022-10-25T01:29:28.319Z,13.18
2022-10-25T01:32:10.639Z,12.45
2022-10-25T01:34:56.744Z,12.00
2022-10-25T01:37:42.713Z,13.10
2022-10-25T01:40:23.893Z,11.18
2022-10-25T01:43:26.524Z,13.63
2022-10-25T01:46:02.699Z,18.42
2022-10-25T01:48:37.304Z,14.50
2022-10-25T01:51:10.420Z,13.75
2022-10-25T01:53:51.804Z,15.85
2022-10-25T01:56:28.475Z,16.88
2022-10-25T01:59:44.390Z,11.35
2022-10-25T02:02:39.829Z,13.80
2022-10-25T02:05:21.584Z,12.80
2022-10-25T02:08:19.047Z,13.65
2022-10-25T02:11:34.424Z,14.80
2022-10-25T02:14:07.510Z,15.85
2022-10-25T02:16:50.047Z,15.73
2022-10-25T02:19:21.694Z,11.40
2022-10-25T02:21:50.536Z,12.73
2022-10-25T02:24:21.689Z,16.77
2022-10-25T02:26:50.289Z,18.25
2022-10-25T02:29:19.210Z,18.73
2022-10-25T02:31:46.364Z,16.10
2022-10-25T02:34:13.261Z,15.50
2022-10-25T02:36:40.330Z,18.10
2022-10-25T02:39:07.730Z,15.43
2022-10-25T02:41:34.567Z,16.10
2022-10-25T02:44:01.475Z,18.00
2022-10-25T02:46:28.315Z,17.75
2022-10-25T02:48:55.167Z,18.45
2022-10-25T02:51:22.987Z,16.67
2022-10-25T02:53:49.885Z,13.75
2022-10-25T02:56:20.762Z,17.55
2022-10-25T02:58:50.367Z,16.70
2022-10-25T03:01:20.038Z,13.57
2022-10-25T03:03:47.864Z,14.75
2022-10-25T03:06:15.963Z,14.77
2022-10-25T03:08:44.495Z,21.25
2022-10-25T03:11:13.788Z,15.98
2022-10-25T03:13:40.642Z,16.55
2022-10-25T03:16:08.090Z,13.80
2022-10-25T03:18:34.912Z,16.42
2022-10-25T03:21:03.146Z,16.38
2022-10-25T03:23:30.450Z,16.83
2022-10-25T03:25:59.584Z,17.35
2022-10-25T03:28:27.547Z,14.32
2022-10-25T03:30:55.604Z,16.08
2022-10-25T03:33:23.115Z,14.52
2022-10-25T03:35:52.032Z,22.15
2022-10-25T03:38:19.087Z,18.08
2022-10-25T03:40:46.001Z,17.17
2022-10-25T03:43:13.260Z,17.20
2022-10-25T03:45:40.167Z,14.77
2022-10-25T03:48:07.245Z,14.82
2022-10-25T03:50:36.020Z,16.60
2022-10-25T03:53:04.171Z,15.50
2022-10-25T03:55:31.485Z,14.48
2022-10-25T03:57:58.344Z,15.40
2022-10-25T04:00:25.513Z,13.77
2022-10-25T04:03:00.956Z,16.45
2022-10-25T04:05:30.492Z,15.27
2022-10-25T04:07:57.533Z,19.48
2022-10-25T04:10:25.319Z,17.83
2022-10-25T04:12:53.950Z,17.92
2022-10-25T04:15:21.968Z,19.85
2022-10-25T04:17:54.806Z,18.95
2022-10-25T04:20:24.831Z,13.55
2022-10-25T04:23:00.668Z,16.20
2022-10-25T04:25:29.989Z,18.52
2022-10-25T04:28:00.035Z,15.75
2022-10-25T04:30:27.047Z,16.55
2022-10-25T04:32:53.963Z,17.60
2022-10-25T04:35:21.090Z,15.48
2022-10-25T04:37:48.009Z,13.35
2022-10-25T04:40:14.909Z,18.88
2022-10-25T04:42:41.829Z,17.67
2022-10-25T04:45:09.190Z,17.27
2022-10-25T04:47:36.362Z,16.67
2022-10-25T04:50:03.796Z,16.85
2022-10-25T04:52:31.331Z,17.65
2022-10-25T04:54:58.723Z,17.40
2022-10-25T04:57:26.014Z,19.15
2022-10-25T04:59:52.922Z,16.60
2022-10-25T05:02:20.243Z,18.90
2022-10-25T05:04:47.070Z,19.65
2022-10-25T05:07:13.970Z,16.58
2022-10-25T05:09:43.910Z,15.93
2022-10-25T05:12:14.092Z,24.42
2022-10-25T05:14:40.975Z,17.75
2022-10-25T05:17:07.881Z,16.45
2022-10-25T05:19:34.724Z,26.33
2022-10-25T05:22:01.599Z,21.48
2022-10-25T05:24:28.480Z,19.63
2022-10-25T05:26:55.339Z,20.23
2022-10-25T05:29:22.174Z,25.85
2022-10-25T05:31:49.010Z,21.80
2022-10-25T05:34:15.954Z,19.42
2022-10-25T05:36:42.938Z,19.25
2022-10-25T05:39:09.770Z,19.95
2022-10-25T05:41:37.304Z,19.38
2022-10-25T05:44:05.636Z,23.65
2022-10-25T05:46:33.399Z,20.88
2022-10-25T05:49:00.690Z,25.17
2022-10-25T05:51:35.256Z,19.50
2022-10-25T05:54:15.299Z,20.15
2022-10-25T05:56:43.166Z,20.77
2022-10-25T05:59:13.595Z,21.95
2022-10-25T06:01:45.801Z,20.23
2022-10-25T06:04:13.968Z,17.67
2022-10-25T06:06:42.303Z,23.58
2022-10-25T06:09:10.145Z,23.83
2022-10-25T06:11:38.571Z,19.33
2022-10-25T06:14:06.147Z,19.20
2022-10-25T06:16:33.636Z,18.60
2022-10-25T06:19:00.482Z,20.40
2022-10-25T06:21:29.377Z,21.98
2022-10-25T06:23:58.263Z,24.35
2022-10-25T06:26:28.259Z,21.40
2022-10-25T06:29:01.884Z,18.55
2022-10-25T06:31:30.140Z,22.83
2022-10-25T06:33:58.811Z,25.55
2022-10-25T06:36:27.755Z,19.63
2022-10-25T06:38:54.780Z,21.13
2022-10-25T06:41:28.312Z,22.00
2022-10-25T06:43:55.804Z,22.38
2022-10-25T06:46:33.186Z,18.35
2022-10-25T06:49:05.365Z,18.63
2022-10-25T06:51:34.422Z,20.85
2022-10-25T06:54:07.959Z,21.45
2022-10-25T06:56:35.631Z,30.17
2022-10-25T06:59:02.866Z,17.30
2022-10-25T07:01:30.023Z,18.70
2022-10-25T07:03:57.054Z,20.02
2022-10-25T07:06:35.289Z,18.02
2022-10-25T07:09:02.303Z,25.17
2022-10-25T07:11:31.723Z,24.08
2022-10-25T07:14:00.460Z,27.30
2022-10-25T07:16:28.420Z,24.15
2022-10-25T07:19:04.088Z,17.30
2022-10-25T07:21:32.553Z,22.55
2022-10-25T07:24:00.160Z,16.05
2022-10-25T07:26:31.307Z,22.88
2022-10-25T07:29:00.275Z,18.95
2022-10-25T07:31:31.474Z,19.30
2022-10-25T07:34:01.101Z,17.73
2022-10-25T07:36:28.011Z,19.52
2022-10-25T07:38:56.256Z,21.38
2022-10-25T07:41:24.410Z,23.65
2022-10-25T07:43:51.345Z,16.48
2022-10-25T07:46:18.560Z,18.70
2022-10-25T07:48:45.549Z,22.60
2022-10-25T07:51:15.961Z,20.77
2022-10-25T07:53:42.997Z,29.30
2022-10-25T07:56:17.493Z,22.48
2022-10-25T07:58:47.528Z,17.80
2022-10-25T08:01:21.465Z,20.40
2022-10-25T08:03:48.424Z,19.38
2022-10-25T08:06:15.391Z,20.40
2022-10-25T08:08:42.244Z,15.02
2022-10-25T08:11:09.249Z,18.92
2022-10-25T08:13:37.641Z,19.05
2022-10-25T08:16:06.251Z,18.15
2022-10-25T08:18:34.667Z,24.60
2022-10-25T08:21:03.562Z,17.60
2022-10-25T08:23:32.533Z,20.60
2022-10-25T08:26:00.858Z,21.23
2022-10-25T08:28:28.195Z,21.05
2022-10-25T08:30:55.729Z,23.45
2022-10-25T08:33:24.931Z,19.50
2022-10-25T08:35:51.791Z,20.35
2022-10-25T08:38:18.697Z,22.67
2022-10-25T08:41:06.948Z,15.57
2022-10-25T08:44:05.783Z,15.95
2022-10-25T08:46:53.795Z,19.92
2022-10-25T08:49:52.841Z,16.00
2022-10-25T08:52:32.925Z,15.38
2022-10-25T08:55:05.700Z,12.68
2022-10-25T08:57:38.714Z,16.40
2022-10-25T09:00:17.322Z,23.48
2022-10-25T09:02:56.282Z,19.30
2022-10-25T09:06:08.126Z,19.73
2022-10-25T09:08:58.024Z,14.80
2022-10-25T09:11:48.008Z,17.77
2022-10-25T09:15:01.567Z,19.85
2022-10-25T09:17:41.242Z,19.25
2022-10-25T09:20:21.064Z,18.25
2022-10-25T09:23:05.373Z,15.65
2022-10-25T09:25:59.904Z,14.25
2022-10-25T09:28:55.831Z,17.10
2022-10-25T09:31:24.567Z,22.00
2022-10-25T09:34:03.954Z,18.58
2022-10-25T09:36:39.285Z,16.30
2022-10-25T09:39:17.299Z,29.25
2022-10-25T09:41:50.043Z,20.83
2022-10-25T09:44:39.207Z,14.40
2022-10-25T09:47:30.012Z,16.42
2022-10-25T09:50:37.542Z,18.13
2022-10-25T09:53:16.613Z,22.55
2022-10-25T09:56:01.085Z,18.30
2022-10-25T09:58:34.164Z,20.15
2022-10-25T10:01:26.028Z,15.57
2022-10-25T10:03:58.026Z,17.77
2022-10-25T10:06:36.168Z,19.15
2022-10-25T10:09:07.013Z,16.35
2022-10-25T10:11:35.921Z,17.75
2022-10-25T10:14:14.847Z,16.13
2022-10-25T10:16:51.255Z,17.88
2022-10-25T10:19:23.018Z,12.38
2022-10-25T10:21:56.873Z,16.08
2022-10-25T10:24:28.894Z,16.25
2022-10-25T10:26:59.651Z,20.52
2022-10-25T10:29:30.707Z,22.60
2022-10-25T10:32:23.939Z,22.45
2022-10-25T10:34:57.034Z,15.48
2022-10-25T10:37:26.292Z,18.02
2022-10-25T10:39:55.347Z,19.73
2022-10-25T10:42:42.803Z,15.52
2022-10-25T10:45:15.623Z,18.38
2022-10-25T10:47:51.454Z,11.90
2022-10-25T10:50:22.056Z,13.05
2022-10-25T10:53:00.862Z,14.38
2022-10-25T10:55:37.299Z,10.63
2022-10-25T10:58:20.435Z,13.68
2022-10-25T11:00:51.170Z,12.07
2022-10-25T11:03:48.723Z,12.70
2022-10-25T11:06:33.692Z,10.98
2022-10-25T11:09:12.785Z,12.57
2022-10-25T11:11:40.494Z,12.75
2022-10-25T11:14:25.662Z,10.85
2022-10-25T11:17:22.984Z,11.88
2022-10-25T11:20:31.171Z,14.38
2022-10-25T11:23:27.849Z,14.18
2022-10-25T11:26:23.698Z,14.90
2022-10-25T11:29:06.729Z,11.48
2022-10-25T11:31:52.322Z,9.30
2022-10-25T11:34:43.698Z,9.85
2022-10-25T11:37:28.765Z,18.10
2022-10-25T11:40:19.002Z,14.93
2022-10-25T11:43:17.743Z,11.65
2022-10-25T11:45:48.374Z,11.95
2022-10-25T11:48:31.129Z,13.68
2022-10-25T11:51:36.149Z,12.13
2022-10-25T11:54:22.312Z,11.45
2022-10-25T11:57:32.238Z,14.82
2022-10-25T12:00:13.601Z,13.55
2022-10-25T12:03:07.102Z,13.65
2022-10-25T12:06:00.096Z,12.18
2022-10-25T12:09:02.310Z,12.10
2022-10-25T12:11:42.017Z,16.33
2022-10-25T12:14:14.609Z,10.93
2022-10-25T12:16:42.063Z,10.77
2022-10-25T12:19:24.905Z,15.90
2022-10-25T12:22:01.896Z,12.35
2022-10-25T12:24:45.022Z,13.13
2022-10-25T12:27:13.748Z,11.90
2022-10-25T12:29:49.728Z,11.75
2022-10-25T12:32:27.838Z,10.32
2022-10-25T12:34:57.737Z,13.43
2022-10-25T12:37:49.043Z,10.48
2022-10-25T12:40:21.272Z,12.50
2022-10-25T12:43:14.171Z,14.55
2022-10-25T12:46:08.307Z,11.52
2022-10-25T12:48:56.629Z,10.63
2022-10-25T12:51:51.302Z,10.43
2022-10-25T12:54:34.104Z,11.57
2022-10-25T12:57:15.181Z,8.38
2022-10-25T12:59:44.940Z,11.93
2022-10-25T13:02:56.853Z,9.88
2022-10-25T13:06:08.301Z,14.30
2022-10-25T13:08:38.546Z,11.77
2022-10-25T13:11:07.466Z,13.05
2022-10-25T13:13:40.107Z,10.82
2022-10-25T13:16:10.893Z,10.27
2022-10-25T13:18:46.230Z,9.60
2022-10-25T13:21:53.262Z,12.80
2022-10-25T13:24:43.725Z,14.73
2022-10-25T13:27:13.631Z,10.82
2022-10-25T13:30:02.735Z,11.35
2022-10-25T13:32:35.605Z,10.57
2022-10-25T13:35:23.022Z,11.85
2022-10-25T13:37:54.635Z,13.77
2022-10-25T13:40:24.694Z,18.40
2022-10-25T13:43:19.591Z,19.60
2022-10-25T13:45:53.786Z,17.75
2022-10-25T13:48:35.699Z,18.63
2022-10-25T13:51:16.491Z,15.82
2022-10-25T13:53:47.152Z,10.32
2022-10-25T13:56:34.592Z,13.35
2022-10-25T13:59:01.950Z,13.60
2022-10-25T14:01:32.216Z,14.60
2022-10-25T14:04:02.182Z,11.48
2022-10-25T14:06:37.297Z,12.20
2022-10-25T14:09:33.425Z,13.93
2022-10-25T14:12:06.467Z,11.88
2022-10-25T14:15:09.904Z,17.15
2022-10-25T14:17:42.829Z,12.80
2022-10-25T14:20:30.121Z,14.07
2022-10-25T14:23:03.924Z,17.63
2022-10-25T14:25:40.383Z,10.10
2022-10-25T14:28:10.131Z,11.27
2022-10-25T14:30:50.448Z,12.23
2022-10-25T14:33:30.537Z,8.40
2022-10-25T14:36:06.462Z,10.60
2022-10-25T14:38:48.962Z,14.57
2022-10-25T14:41:24.591Z,12.68
2022-10-25T14:43:51.944Z,12.95
2022-10-25T14:46:21.732Z,13.77
2022-10-25T14:48:54.132Z,14.25
2022-10-25T14:51:29.566Z,13.45
2022-10-25T14:54:20.038Z,14.05
2022-10-25T14:56:53.369Z,12.93
2022-10-25T14:59:26.833Z,15.02
2022-10-25T15:02:03.226Z,13.30
2022-10-25T15:04:34.583Z,14.60
2022-10-25T15:07:02.688Z,15.45
2022-10-25T15:09:42.297Z,15.80
2022-10-25T15:12:12.855Z,16.85
2022-10-25T15:14:39.770Z,18.58
2022-10-25T15:17:25.007Z,13.77
2022-10-25T15:20:11.640Z,14.60
2022-10-25T15:22:38.390Z,18.80
2022-10-25T15:25:31.691Z,19.05
2022-10-25T15:28:13.825Z,15.57
2022-10-25T15:30:58.745Z,14.82
2022-10-25T15:33:32.393Z,20.48
2022-10-25T15:36:03.615Z,20.25
2022-10-25T15:39:05.461Z,21.52
2022-10-25T15:41:22.170Z,18.00
2022-10-25T15:43:49.221Z,22.60
2022-10-25T15:46:28.826Z,20.87
2022-10-25T15:48:56.123Z,17.98
2022-10-25T15:51:25.166Z,23.95
2022-10-25T15:53:54.415Z,19.58
2022-10-25T15:56:21.732Z,23.33
2022-10-25T15:58:48.757Z,14.75
2022-10-25T16:01:15.677Z,20.70
2022-10-25T16:03:42.743Z,21.17
2022-10-25T16:06:13.725Z,25.77
2022-10-25T16:08:41.783Z,16.13
2022-10-25T16:11:19.190Z,18.75
2022-10-25T16:13:49.045Z,23.10
2022-10-25T16:16:44.840Z,20.63
2022-10-25T16:19:17.335Z,15.30
2022-10-25T16:21:44.499Z,27.23
2022-10-25T16:24:12.734Z,26.92
2022-10-25T16:26:44.561Z,25.58
2022-10-25T16:29:21.264Z,23.40
2022-10-25T16:31:48.616Z,18.08
2022-10-25T16:34:17.479Z,20.90
2022-10-25T16:36:44.981Z,21.75
2022-10-25T16:39:12.665Z,20.38
2022-10-25T16:41:43.293Z,18.20
2022-10-25T16:44:12.781Z,20.42
2022-10-25T16:46:40.071Z,18.60
2022-10-25T16:49:09.112Z,21.88
2022-10-25T16:51:37.209Z,20.35
2022-10-25T16:54:04.627Z,21.23
2022-10-25T16:56:31.626Z,22.45
2022-10-25T16:58:58.500Z,23.58
2022-10-25T17:01:34.314Z,25.48
2022-10-25T17:04:03.701Z,18.48
2022-10-25T17:06:46.209Z,22.48
2022-10-25T17:09:13.160Z,22.10
2022-10-25T17:11:40.909Z,21.90
2022-10-25T17:14:09.670Z,23.35
2022-10-25T17:16:39.809Z,19.55
2022-10-25T17:19:06.717Z,21.63
2022-10-25T17:21:35.791Z,17.48
2022-10-25T17:24:04.560Z,18.80
2022-10-25T17:26:31.381Z,23.80
2022-10-25T17:29:00.814Z,14.85
2022-10-25T17:31:32.410Z,19.88
2022-10-25T17:34:00.446Z,23.52
2022-10-25T17:36:28.971Z,28.30
2022-10-25T17:38:55.797Z,25.00
2022-10-25T17:41:22.772Z,30.88
2022-10-25T17:43:52.026Z,29.50
2022-10-25T17:46:26.151Z,30.17
2022-10-25T17:49:03.272Z,32.08
2022-10-25T17:51:32.871Z,22.67
2022-10-25T17:54:00.043Z,32.25
2022-10-25T17:56:28.134Z,29.33
2022-10-25T17:58:56.006Z,33.20
2022-10-25T18:01:26.225Z,20.75
2022-10-25T18:03:54.863Z,20.02
2022-10-25T18:06:24.335Z,16.05
2022-10-25T18:08:56.551Z,19.48
2022-10-25T18:11:27.091Z,16.90
2022-10-25T18:14:04.025Z,22.08
2022-10-25T18:16:32.083Z,19.65
2022-10-25T18:19:02.900Z,16.17
2022-10-25T18:21:30.027Z,18.63
2022-10-25T18:23:59.474Z,19.05
2022-10-25T18:26:27.358Z,23.70
2022-10-25T18:28:54.391Z,16.58
2022-10-25T18:31:21.309Z,18.95
2022-10-25T18:33:48.297Z,18.35
2022-10-25T18:36:19.260Z,17.55
2022-10-25T18:38:47.525Z,18.95
2022-10-25T18:41:23.915Z,21.42
2022-10-25T18:43:50.959Z,27.27
2022-10-25T18:46:18.085Z,33.70
2022-10-25T18:48:45.251Z,30.00
2022-10-25T18:51:14.238Z,30.63
2022-10-25T18:53:41.379Z,25.52
2022-10-25T18:56:10.704Z,22.15
2022-10-25T18:58:38.270Z,28.70
2022-10-25T19:01:10.788Z,24.45
2022-10-25T19:03:38.149Z,21.33
2022-10-25T19:06:05.947Z,19.90
2022-10-25T19:08:33.900Z,22.77
2022-10-25T19:11:19.011Z,20.95
2022-10-25T19:13:48.933Z,22.67
2022-10-25T19:16:18.182Z,22.65
2022-10-25T19:18:45.000Z,19.80
2022-10-25T19:21:13.934Z,18.13
2022-10-25T19:23:42.725Z,21.83
2022-10-25T19:26:17.234Z,22.42
2022-10-25T19:28:44.583Z,23.70
2022-10-25T19:31:17.263Z,25.05
2022-10-25T19:33:49.287Z,18.83
2022-10-25T19:36:17.510Z,15.98
2022-10-25T19:38:48.751Z,20.20
2022-10-25T19:41:19.572Z,23.85
2022-10-25T19:43:47.045Z,25.05
2022-10-25T19:46:14.880Z,21.42
2022-10-25T19:48:41.936Z,21.63
2022-10-25T19:51:20.256Z,17.33
2022-10-25T19:53:47.488Z,17.58
2022-10-25T19:56:20.858Z,15.27
2022-10-25T19:58:48.825Z,17.27
2022-10-25T20:01:19.708Z,15.82
2022-10-25T20:03:50.896Z,15.25
2022-10-25T20:06:24.568Z,18.10
2022-10-25T20:08:53.048Z,16.73
2022-10-25T20:11:20.514Z,14.90
2022-10-25T20:13:47.365Z,18.65
2022-10-25T20:16:14.557Z,18.55
2022-10-25T20:18:42.676Z,15.65
2022-10-25T20:21:14.051Z,17.52
2022-10-25T20:23:44.414Z,12.57
2022-10-25T20:26:24.736Z,15.73
2022-10-25T20:29:00.055Z,18.88
2022-10-25T20:31:31.641Z,17.30
2022-10-25T20:33:58.892Z,24.02
2022-10-25T20:36:26.334Z,15.18
2022-10-25T20:38:53.571Z,15.52
2022-10-25T20:41:26.688Z,15.52
2022-10-25T20:43:56.765Z,13.13
2022-10-25T20:46:25.699Z,13.77
2022-10-25T20:48:53.401Z,15.23
2022-10-25T20:51:20.920Z,12.85
2022-10-25T20:53:48.793Z,15.95
2022-10-25T20:56:18.154Z,18.73
2022-10-25T20:58:45.267Z,16.58
2022-10-25T21:01:13.037Z,18.88
2022-10-25T21:03:40.398Z,16.38
2022-10-25T21:06:10.455Z,17.40
2022-10-25T21:08:37.934Z,13.77
2022-10-25T21:11:07.519Z,17.90
2022-10-25T21:13:35.970Z,17.70
2022-10-25T21:16:15.213Z,26.75
2022-10-25T21:18:43.451Z,56.50
2022-10-25T21:21:19.207Z,26.70
2022-10-25T21:23:47.065Z,23.58
2022-10-25T21:26:13.972Z,16.42
2022-10-25T21:28:41.534Z,19.52
2022-10-25T21:31:13.952Z,17.73
2022-10-25T21:33:49.613Z,18.80
2022-10-25T21:36:19.707Z,17.85
2022-10-25T21:38:46.780Z,22.40
2022-10-25T21:41:20.923Z,20.27
2022-10-25T21:43:49.674Z,22.65
2022-10-25T21:46:18.774Z,20.25
2022-10-25T21:48:47.870Z,16.92
2022-10-25T21:51:15.453Z,20.42
2022-10-25T21:53:42.852Z,23.30
2022-10-25T21:56:16.276Z,21.52
2022-10-25T21:58:45.853Z,20.45
2022-10-25T22:01:19.099Z,21.15
2022-10-25T22:03:46.081Z,22.02
2022-10-25T22:06:19.372Z,21.67
2022-10-25T22:08:47.728Z,22.52
2022-10-25T22:11:27.254Z,22.30
2022-10-25T22:14:04.279Z,22.42
2022-10-25T22:16:32.921Z,21.63
2022-10-25T22:19:04.118Z,24.40
2022-10-25T22:21:34.920Z,23.33
2022-10-25T22:24:02.620Z,25.02
2022-10-25T22:26:29.771Z,23.20
2022-10-25T22:28:58.835Z,18.52
2022-10-25T22:31:28.726Z,19.70
2022-10-25T22:34:02.777Z,23.33
2022-10-25T22:36:36.590Z,25.30
2022-10-25T22:39:05.141Z,22.48
2022-10-25T22:41:32.516Z,27.58
2022-10-25T22:43:59.997Z,23.52
2022-10-25T22:46:35.020Z,33.58
2022-10-25T22:49:08.386Z,20.58
2022-10-25T22:51:36.704Z,23.23
2022-10-25T22:54:03.934Z,24.35
2022-10-25T22:56:31.969Z,32.70
2022-10-25T22:59:02.471Z,27.30
2022-10-25T23:01:32.317Z,23.17
2022-10-25T23:03:59.939Z,33.15
2022-10-25T23:06:30.428Z,30.27
2022-10-25T23:09:00.747Z,25.88
2022-10-25T23:11:31.008Z,26.02
2022-10-25T23:13:58.706Z,24.17
2022-10-25T23:16:26.744Z,20.05
2022-10-25T23:18:54.015Z,18.05
2022-10-25T23:21:30.302Z,20.33
2022-10-25T23:23:59.774Z,20.83
2022-10-25T23:26:33.082Z,22.42
2022-10-25T23:29:00.796Z,24.25
2022-10-25T23:31:28.692Z,27.23
2022-10-25T23:33:58.606Z,24.42
2022-10-25T23:36:29.277Z,22.52
2022-10-25T23:38:57.866Z,21.52
2022-10-25T23:41:24.732Z,19.38
2022-10-25T23:43:51.558Z,23.33
2022-10-25T23:46:18.463Z,24.88
2022-10-25T23:48:45.544Z,22.45
2022-10-25T23:51:16.175Z,21.08
2022-10-25T23:53:43.547Z,20.40
2022-10-25T23:56:12.847Z,18.65
2022-10-25T23:58:39.744Z,17.85
